Merlin — WDD6426 — position and weather

sailwx.info

Track history (hours):
 
Tides and Currents Weather Stations Pressure Air Temp Water Temp Dewpoint Dewpoint Depression Visibility Wind Speed Wind Dir Waves Ship Positions

Merlin

Owner: Merlin Marine Corp., San Diego, CA. More information available from US FCC via Universal Licensing System and Coast Guard Vessel Documentation Center.

Last reported at 2018-Feb-15 23:59 UTC. Time now 2018-Feb-24 18:05 UTC.
Position N 32°44' W 117°13'.
Warning: this ship's position is 8 days out of date.

Type: SAR. MMSI: 367409000.

Date/timePositionNaut miles runAvg speedWind from/ knotsBaromVisibWave heightAir tempDewpointWater temp
2018-Feb-15 23:59N 32°44' W 117°13'0 0.0
2018-Feb-15 22:59N 32°44' W 117°13'10 5.2
2018-Feb-15 21:09N 32°40' W 117°23'211.9
2018-Feb-15 20:58N 32°41' W 117°26'611.8
2018-Feb-15 20:27N 32°43' W 117°32'512.0
2018-Feb-15 20:00N 32°45' W 117°38'612.1
2018-Feb-15 19:30N 32°47' W 117°45'612.0
2018-Feb-15 19:00N 32°49' W 117°52'612.0
2018-Feb-15 18:30N 32°52' W 117°58'20 2.5
2018-Feb-15 10:31N 32°60' W 118°20'  
2018-Feb-10 21:01N 32°48' W 117°40'010.0
2018-Feb-10 21:00N 32°48' W 117°40'5 9.2
2018-Feb-10 20:30N 32°46' W 117°35'5 9.4
2018-Feb-10 20:00N 32°45' W 117°29'4 8.2
2018-Feb-10 19:30N 32°43' W 117°25'4 7.5
2018-Feb-10 19:00N 32°41' W 117°21'3 6.1
2018-Feb-10 18:30N 32°39' W 117°18'  
2018-Feb-07 09:00N 32°50' W 117°27'2 4.9
2018-Feb-07 08:30N 32°51' W 117°30'1 1.3
2018-Feb-07 08:00N 32°52' W 117°30'3 6.1
2018-Feb-07 07:30N 32°50' W 117°27'2 4.9
2018-Feb-07 07:00N 32°51' W 117°30'0 0.0
2018-Feb-07 06:31N 32°51' W 117°30'2 3.5
2018-Feb-07 06:00N 32°50' W 117°28'2 4.8
2018-Feb-07 05:30N 32°52' W 117°30'1 3.0
2018-Feb-07 05:01N 32°51' W 117°29'2 4.0
2018-Feb-07 04:30N 32°49' W 117°27'4 8.5
2018-Feb-07 04:00N 32°52' W 117°31'3 5.3
2018-Feb-07 03:30N 32°50' W 117°29'3 5.1
2018-Feb-07 03:00N 32°49' W 117°26'3 5.0
2018-Feb-07 02:30N 32°49' W 117°23'4 8.2
2018-Feb-07 02:01N 32°50' W 117°28'1 1.4
2018-Feb-07 01:30N 32°50' W 117°28'2 5.0
2018-Feb-07 01:00N 32°51' W 117°26'1 2.6
2018-Feb-07 00:30N 32°52' W 117°26'4 8.9
2018-Feb-07 00:00N 32°48' W 117°26'2 4.0
2018-Feb-06 23:30N 32°47' W 117°23'3 6.7
2018-Feb-06 23:00N 32°44' W 117°22'5 8.9
2018-Feb-06 22:29N 32°41' W 117°18'3 6.3
2018-Feb-06 21:59N 32°38' W 117°16'  
Track history (hours):
 
Tides and Currents Weather Stations Pressure Air Temp Water Temp Dewpoint Dewpoint Depression Visibility Wind Speed Wind Dir Waves Ship Positions

Merlin

Owner: Merlin Marine Corp., San Diego, CA. More information available from US FCC via Universal Licensing System and Coast Guard Vessel Documentation Center.

Last reported at 2018-Feb-15 23:59 UTC. Time now 2018-Feb-24 18:05 UTC.
Position N 32°44' W 117°13'.
Warning: this ship's position is 8 days out of date.

Type: SAR. MMSI: 367409000.

Date/timePositionNaut miles runAvg speedWind from/ knotsBaromVisibWave heightAir tempDewpointWater temp
2018-Feb-15 23:59N 32°44' W 117°13'0 0.0
2018-Feb-15 22:59N 32°44' W 117°13'10 5.2
2018-Feb-15 21:09N 32°40' W 117°23'211.9
2018-Feb-15 20:58N 32°41' W 117°26'611.8
2018-Feb-15 20:27N 32°43' W 117°32'512.0
2018-Feb-15 20:00N 32°45' W 117°38'612.1
2018-Feb-15 19:30N 32°47' W 117°45'612.0
2018-Feb-15 19:00N 32°49' W 117°52'612.0
2018-Feb-15 18:30N 32°52' W 117°58'20 2.5
2018-Feb-15 10:31N 32°60' W 118°20'  
2018-Feb-10 21:01N 32°48' W 117°40'010.0
2018-Feb-10 21:00N 32°48' W 117°40'5 9.2
2018-Feb-10 20:30N 32°46' W 117°35'5 9.4
2018-Feb-10 20:00N 32°45' W 117°29'4 8.2
2018-Feb-10 19:30N 32°43' W 117°25'4 7.5
2018-Feb-10 19:00N 32°41' W 117°21'3 6.1
2018-Feb-10 18:30N 32°39' W 117°18'  
2018-Feb-07 09:00N 32°50' W 117°27'2 4.9
2018-Feb-07 08:30N 32°51' W 117°30'1 1.3
2018-Feb-07 08:00N 32°52' W 117°30'3 6.1
2018-Feb-07 07:30N 32°50' W 117°27'2 4.9
2018-Feb-07 07:00N 32°51' W 117°30'0 0.0
2018-Feb-07 06:31N 32°51' W 117°30'2 3.5
2018-Feb-07 06:00N 32°50' W 117°28'2 4.8
2018-Feb-07 05:30N 32°52' W 117°30'1 3.0
2018-Feb-07 05:01N 32°51' W 117°29'2 4.0
2018-Feb-07 04:30N 32°49' W 117°27'4 8.5
2018-Feb-07 04:00N 32°52' W 117°31'3 5.3
2018-Feb-07 03:30N 32°50' W 117°29'3 5.1
2018-Feb-07 03:00N 32°49' W 117°26'3 5.0
2018-Feb-07 02:30N 32°49' W 117°23'4 8.2
2018-Feb-07 02:01N 32°50' W 117°28'1 1.4
2018-Feb-07 01:30N 32°50' W 117°28'2 5.0
2018-Feb-07 01:00N 32°51' W 117°26'1 2.6
2018-Feb-07 00:30N 32°52' W 117°26'4 8.9
2018-Feb-07 00:00N 32°48' W 117°26'2 4.0
2018-Feb-06 23:30N 32°47' W 117°23'3 6.7
2018-Feb-06 23:00N 32°44' W 117°22'5 8.9
2018-Feb-06 22:29N 32°41' W 117°18'3 6.3
2018-Feb-06 21:59N 32°38' W 117°16'  

Dump ship's entire track history